Time;durP1;ratioP1;P1;durP2;ratioP2;P2;SDS_P1;SDS_P2;PMS_P1;PMS_P2;Temp;Humidity;BMP_temperature;BMP_pressure;BME280_temperature;BME280_humidity;BME280_pressure;Samples;Min_cycle;Max_cycle;Signal;HPM_P1;HPM_P2
2021/12/30 00:01:22;;;;;;;9.80;5.10;;;;;;;8.34;100.00;100032.92;103074;1340;62170;-76
2021/12/30 00:03:50;;;;;;;8.90;5.50;;;;;;;8.45;100.00;100038.79;103884;1331;61817;-76
2021/12/30 00:06:18;;;;;;;10.20;5.00;;;;;;;8.57;100.00;100042.42;103760;1336;75023;-77
2021/12/30 00:08:47;;;;;;;9.40;5.20;;;;;;;8.70;100.00;100040.30;103797;1330;71513;-77
2021/12/30 00:11:14;;;;;;;11.70;6.30;;;;;;;8.81;100.00;100048.70;103684;1333;71910;-78
2021/12/30 00:13:44;;;;;;;11.80;6.50;;;;;;;8.93;100.00;100050.59;103693;1334;64097;-76
2021/12/30 00:16:13;;;;;;;15.50;7.40;;;;;;;9.05;100.00;100044.23;103693;1330;61892;-77
2021/12/30 00:18:40;;;;;;;11.40;5.80;;;;;;;9.15;100.00;100053.82;103898;1330;76012;-76
2021/12/30 00:21:07;;;;;;;17.10;7.50;;;;;;;9.24;100.00;100056.30;103101;1343;72886;-78
2021/12/30 00:23:34;;;;;;;16.70;7.00;;;;;;;9.32;100.00;100064.29;103783;1330;72946;-79
2021/12/30 00:26:02;;;;;;;11.10;6.50;;;;;;;9.41;100.00;100064.06;103892;1330;62300;-78
2021/12/30 00:28:28;;;;;;;11.20;7.10;;;;;;;9.47;100.00;100074.41;103945;1330;60902;-77
2021/12/30 00:30:56;;;;;;;12.80;7.20;;;;;;;9.54;100.00;100084.93;103839;1329;60936;-78
2021/12/30 00:33:23;;;;;;;11.70;6.90;;;;;;;9.60;100.00;100090.75;103943;1330;71655;-77
2021/12/30 00:35:51;;;;;;;17.00;7.40;;;;;;;9.64;100.00;100098.55;103744;1330;74252;-78
2021/12/30 00:38:21;;;;;;;12.80;6.80;;;;;;;9.67;100.00;100101.46;103783;1330;63338;-78
2021/12/30 00:40:48;;;;;;;14.50;7.50;;;;;;;9.71;100.00;100106.15;103767;1332;59542;-77
2021/12/30 00:43:14;;;;;;;11.90;7.80;;;;;;;9.74;100.00;100107.30;103896;1329;74920;-78
2021/12/30 00:45:41;;;;;;;13.50;5.00;;;;;;;9.79;100.00;100111.38;103733;1330;59112;-76
2021/12/30 00:48:08;;;;;;;12.30;7.20;;;;;;;9.84;100.00;100107.98;103770;1330;71787;-78
2021/12/30 00:50:37;;;;;;;13.70;6.80;;;;;;;9.88;100.00;100097.61;103715;1337;62484;-79
2021/12/30 00:53:05;;;;;;;12.30;6.60;;;;;;;9.90;100.00;100110.11;103953;1330;60833;-79
2021/12/30 00:55:33;;;;;;;13.40;7.60;;;;;;;9.92;100.00;100120.25;103890;1334;76846;-77
2021/12/30 00:58:00;;;;;;;14.10;6.80;;;;;;;9.95;100.00;100125.77;103781;1333;71439;-76
2021/12/30 01:00:27;;;;;;;17.50;7.10;;;;;;;9.96;100.00;100129.59;103854;1326;74119;-78
2021/12/30 01:02:54;;;;;;;11.90;6.20;;;;;;;9.98;100.00;100131.91;103871;1334;62781;-78
2021/12/30 01:05:21;;;;;;;13.70;6.20;;;;;;;9.98;100.00;100140.00;103100;1338;59248;-78
2021/12/30 01:07:47;;;;;;;15.90;7.40;;;;;;;9.98;100.00;100140.57;103802;1330;75993;-77
2021/12/30 01:10:17;;;;;;;16.30;7.40;;;;;;;10.01;100.00;100149.41;103441;1331;71508;-78
2021/12/30 01:12:44;;;;;;;12.00;6.60;;;;;;;10.03;100.00;100154.63;103808;1331;74072;-78
2021/12/30 01:15:12;;;;;;;16.30;6.70;;;;;;;10.04;100.00;100155.97;103815;1330;63051;-77
2021/12/30 01:20:16;;;;;;;15.50;6.00;;;;;;;10.04;100.00;100160.38;103293;1333;75172;-76
2021/12/30 01:22:43;;;;;;;12.50;6.60;;;;;;;10.03;100.00;100168.73;103587;1338;71500;-76
2021/12/30 01:25:13;;;;;;;11.00;5.70;;;;;;;10.03;100.00;100181.44;103817;1330;74125;-78
2021/12/30 01:27:40;;;;;;;10.40;6.60;;;;;;;10.05;100.00;100186.05;103346;1339;62403;-77
2021/12/30 01:30:11;;;;;;;11.80;5.60;;;;;;;10.06;100.00;100190.52;103713;1331;60885;-77
2021/12/30 01:32:38;;;;;;;11.20;6.00;;;;;;;10.06;100.00;100189.84;103696;1330;74811;-78
2021/12/30 01:35:10;;;;;;;12.70;6.60;;;;;;;10.05;100.00;100183.18;103814;1326;72828;-77
2021/12/30 01:37:37;;;;;;;12.50;5.80;;;;;;;10.05;100.00;100183.75;103918;1330;74302;-78
2021/12/30 01:40:11;;;;;;;13.20;7.00;;;;;;;10.07;100.00;100185.07;103787;1329;62314;-78
2021/12/30 01:42:37;;;;;;;12.00;5.60;;;;;;;10.07;100.00;100192.94;103315;1334;60754;-76
2021/12/30 01:45:08;;;;;;;14.80;6.70;;;;;;;10.06;100.00;100187.14;103805;1330;76580;-76
2021/12/30 01:47:36;;;;;;;15.50;5.80;;;;;;;10.06;100.00;100186.94;103945;1330;70259;-78
2021/12/30 01:50:04;;;;;;;15.70;6.70;;;;;;;10.06;100.00;100193.67;103751;1333;74005;-76
2021/12/30 01:52:31;;;;;;;11.30;6.10;;;;;;;10.06;100.00;100195.70;103916;1330;62297;-77
2021/12/30 01:54:58;;;;;;;16.00;6.20;;;;;;;10.06;100.00;100205.33;103832;1330;60583;-77
2021/12/30 01:57:25;;;;;;;18.20;7.40;;;;;;;10.06;100.00;100217.27;103778;1326;76618;-77
2021/12/30 01:59:52;;;;;;;11.80;5.40;;;;;;;10.07;100.00;100223.94;103976;1330;72011;-77
2021/12/30 02:02:18;;;;;;;15.00;5.70;;;;;;;10.07;100.00;100223.32;103935;1330;72741;-76
2021/12/30 02:04:46;;;;;;;16.80;7.20;;;;;;;10.09;100.00;100214.86;103708;1333;63557;-77
2021/12/30 02:07:14;;;;;;;14.50;5.90;;;;;;;10.11;100.00;100211.27;103891;1333;61666;-75
2021/12/30 02:09:40;;;;;;;15.70;7.40;;;;;;;10.12;100.00;100222.48;103843;1329;75092;-77
2021/12/30 02:12:08;;;;;;;10.70;5.30;;;;;;;10.11;100.00;100227.78;103826;1331;71531;-77
2021/12/30 02:14:35;;;;;;;13.20;6.50;;;;;;;10.12;100.00;100244.32;103874;1330;72329;-77
2021/12/30 02:17:04;;;;;;;11.20;4.30;;;;;;;10.12;100.00;100245.91;103810;1335;61010;-76
2021/12/30 02:19:33;;;;;;;14.10;5.40;;;;;;;10.14;100.00;100256.08;103912;1335;60480;-76
2021/12/30 02:21:59;;;;;;;15.50;5.30;;;;;;;10.14;100.00;100252.94;103828;1329;74992;-75
2021/12/30 02:24:27;;;;;;;12.70;5.40;;;;;;;10.13;100.00;100259.11;103536;1336;72644;-77
2021/12/30 02:26:54;;;;;;;12.20;5.60;;;;;;;10.13;100.00;100262.09;103890;1330;72648;-76
2021/12/30 02:29:21;;;;;;;15.90;5.20;;;;;;;10.12;100.00;100254.59;103931;1330;62283;-77
2021/12/30 02:31:48;;;;;;;13.80;4.70;;;;;;;10.11;100.00;100258.93;103309;1333;61817;-77
2021/12/30 02:34:16;;;;;;;16.70;5.40;;;;;;;10.08;100.00;100271.65;103676;1338;74969;-77
2021/12/30 02:36:47;;;;;;;12.60;5.10;;;;;;;10.06;100.00;100275.13;103912;1330;72598;-77
2021/12/30 02:39:14;;;;;;;17.70;5.80;;;;;;;10.05;100.00;100274.30;103600;1330;72963;-78
2021/12/30 02:41:41;;;;;;;10.00;3.90;;;;;;;10.06;100.00;100279.29;103845;1329;63130;-77
2021/12/30 02:44:08;;;;;;;11.50;4.70;;;;;;;10.06;100.00;100276.70;103105;1337;61633;-77
2021/12/30 02:46:37;;;;;;;9.80;5.40;;;;;;;10.05;100.00;100274.88;103736;1330;76525;-77
2021/12/30 02:49:04;;;;;;;18.30;5.30;;;;;;;10.04;100.00;100278.04;103901;1330;72373;-77
2021/12/30 02:51:34;;;;;;;17.20;5.60;;;;;;;10.03;100.00;100277.02;103894;1329;71990;-77
2021/12/30 02:54:02;;;;;;;17.30;5.30;;;;;;;10.04;100.00;100279.78;103972;1329;62292;-77
2021/12/30 02:56:30;;;;;;;13.00;4.90;;;;;;;10.04;100.00;100277.49;103555;1330;61657;-77
2021/12/30 02:58:57;;;;;;;13.80;4.70;;;;;;;10.04;100.00;100278.98;103877;1329;75214;-77
2021/12/30 03:01:29;;;;;;;13.40;4.60;;;;;;;10.05;100.00;100278.09;103883;1331;70672;-77
2021/12/30 03:03:58;;;;;;;13.80;4.90;;;;;;;10.08;100.00;100274.86;103936;1330;72808;-77
2021/12/30 03:06:26;;;;;;;20.90;5.50;;;;;;;10.11;100.00;100270.30;103182;1333;62505;-77
2021/12/30 03:08:53;;;;;;;11.10;4.10;;;;;;;10.13;100.00;100280.61;104008;1330;61895;-78
2021/12/30 03:11:21;;;;;;;15.70;4.90;;;;;;;10.16;100.00;100282.50;103877;1330;74965;-78
2021/12/30 03:13:48;;;;;;;15.00;4.20;;;;;;;10.20;100.00;100286.34;103919;1330;71426;-77
2021/12/30 03:16:22;;;;;;;16.20;3.30;;;;;;;10.22;100.00;100282.52;103864;1326;74106;-77
2021/12/30 03:18:49;;;;;;;10.50;4.00;;;;;;;10.24;100.00;100280.19;103913;1330;62354;-78
2021/12/30 03:21:20;;;;;;;13.50;4.10;;;;;;;10.24;100.00;100286.23;103676;1330;60691;-78
2021/12/30 03:23:47;;;;;;;11.50;3.30;;;;;;;10.21;100.00;100287.42;103792;1330;74963;-78
2021/12/30 03:26:14;;;;;;;8.60;2.80;;;;;;;10.17;100.00;100286.16;103922;1330;71383;-78
2021/12/30 03:28:44;;;;;;;13.70;2.70;;;;;;;10.12;100.00;100299.08;103826;1330;72939;-78
2021/12/30 03:31:14;;;;;;;13.10;2.70;;;;;;;10.10;100.00;100307.09;103438;1333;62479;-79
2021/12/30 03:33:41;;;;;;;11.50;2.80;;;;;;;10.06;100.00;100312.06;103958;1334;60609;-78
2021/12/30 03:36:09;;;;;;;11.70;2.90;;;;;;;10.04;100.00;100324.52;103962;1331;74996;-78
2021/12/30 03:38:44;;;;;;;11.80;3.70;;;;;;;10.00;100.00;100335.17;103190;1338;71448;-79
2021/12/30 03:41:14;;;;;;;13.90;4.90;;;;;;;9.95;100.00;100341.86;103694;1333;73055;-79
2021/12/30 03:43:41;;;;;;;9.40;3.00;;;;;;;9.92;100.00;100356.45;103765;1329;62374;-79
2021/12/30 03:46:08;;;;;;;12.80;3.10;;;;;;;9.89;100.00;100371.77;103979;1327;60739;-80
2021/12/30 03:48:40;;;;;;;13.30;3.70;;;;;;;9.88;100.00;100376.15;103626;1333;74992;-80
2021/12/30 03:51:09;;;;;;;12.60;3.60;;;;;;;9.87;100.00;100385.83;103954;1331;71559;-79
2021/12/30 03:53:42;;;;;;;12.40;3.60;;;;;;;9.87;100.00;100396.55;103827;1330;73256;-79
2021/12/30 03:56:12;;;;;;;11.80;2.90;;;;;;;9.88;100.00;100401.92;103914;1330;62516;-78
2021/12/30 03:58:40;;;;;;;22.10;4.20;;;;;;;9.89;100.00;100408.52;103790;1329;60480;-79
2021/12/30 04:01:09;;;;;;;8.90;2.50;;;;;;;9.89;100.00;100407.27;103588;1336;75075;-80
2021/12/30 04:03:36;;;;;;;9.90;2.50;;;;;;;9.90;100.00;100411.73;103936;1329;71091;-79
2021/12/30 04:06:03;;;;;;;13.20;3.40;;;;;;;9.90;100.00;100407.98;103870;1336;73175;-78
2021/12/30 04:08:29;;;;;;;11.40;2.60;;;;;;;9.93;100.00;100407.54;103183;1330;62245;-79
2021/12/30 04:10:57;;;;;;;12.20;3.20;;;;;;;9.94;100.00;100413.58;103933;1330;60595;-79
2021/12/30 04:13:23;;;;;;;17.90;3.50;;;;;;;9.96;100.00;100415.09;103856;1330;75007;-80
2021/12/30 04:15:51;;;;;;;16.90;4.50;;;;;;;9.99;100.00;100421.84;103988;1330;71501;-79
2021/12/30 04:18:18;;;;;;;12.70;3.10;;;;;;;10.01;100.00;100426.91;103864;1331;73037;-78
2021/12/30 04:20:46;;;;;;;14.00;3.40;;;;;;;10.03;100.00;100419.83;103098;1337;62844;-78
2021/12/30 04:23:14;;;;;;;14.80;3.40;;;;;;;10.05;100.00;100416.92;103856;1334;60619;-78
2021/12/30 04:25:40;;;;;;;13.90;3.70;;;;;;;10.07;99.99;100418.49;103895;1330;75033;-78
2021/12/30 04:28:07;;;;;;;11.60;3.10;;;;;;;10.08;99.54;100411.95;103476;1317;72493;-79
2021/12/30 04:30:36;;;;;;;17.70;4.70;;;;;;;10.10;98.80;100416.02;103974;1331;74097;-78
2021/12/30 04:33:03;;;;;;;16.50;3.60;;;;;;;10.11;98.42;100408.17;104033;1327;61864;-77
2021/12/30 04:35:31;;;;;;;11.10;3.60;;;;;;;10.13;98.76;100412.07;104011;1328;61128;-78
2021/12/30 04:38:00;;;;;;;17.60;3.80;;;;;;;10.13;98.36;100416.52;104054;1328;75057;-78
2021/12/30 04:40:30;;;;;;;19.40;4.20;;;;;;;10.12;98.13;100403.20;104039;1331;72617;-78
2021/12/30 04:42:56;;;;;;;12.70;4.70;;;;;;;10.10;98.31;100386.05;104027;1314;72997;-76
2021/12/30 04:45:25;;;;;;;12.90;2.80;;;;;;;10.09;97.97;100384.09;104383;1315;63845;-78
2021/12/30 04:47:52;;;;;;;20.10;4.80;;;;;;;10.07;97.75;100376.08;104240;1314;62862;-80
2021/12/30 04:52:48;;;;;;;20.10;3.40;;;;;;;9.99;97.67;100378.30;103726;1314;70504;-76
2021/12/30 04:55:15;;;;;;;17.50;3.30;;;;;;;9.96;97.63;100370.09;103822;1313;73004;-77
2021/12/30 04:57:41;;;;;;;24.00;4.10;;;;;;;9.93;97.53;100372.77;104232;1314;60010;-77
2021/12/30 05:00:12;;;;;;;17.50;3.70;;;;;;;9.88;97.15;100375.82;104241;1314;63005;-77
2021/12/30 05:05:08;;;;;;;13.50;3.00;;;;;;;9.79;97.33;100383.43;104090;1316;70441;-77
2021/12/30 05:07:35;;;;;;;14.70;3.20;;;;;;;9.75;97.25;100378.17;104004;1314;75328;-77
2021/12/30 05:10:02;;;;;;;15.20;3.00;;;;;;;9.69;97.21;100380.07;103986;1329;59262;-78
2021/12/30 05:13:08;;;;;;;16.30;2.90;;;;;;;9.63;97.37;100375.27;104456;1315;59156;31
2021/12/30 05:15:36;;;;;;;16.80;2.90;;;;;;;9.59;97.37;100368.69;104760;1316;75640;-76
2021/12/30 05:20:47;;;;;;;14.90;3.20;;;;;;;9.56;97.71;100363.38;103990;1317;71471;-78
2021/12/30 05:23:14;;;;;;;24.90;4.60;;;;;;;9.53;97.71;100361.20;103640;1315;459896;-79
2021/12/30 05:25:41;;;;;;;16.60;3.40;;;;;;;9.54;97.76;100360.11;103827;1330;61045;-79
2021/12/30 05:28:07;;;;;;;19.20;4.70;;;;;;;9.54;97.96;100359.38;103254;1329;59215;-79
2021/12/30 05:30:34;;;;;;;10.20;3.50;;;;;;;9.55;98.09;100365.50;103923;1330;71659;-79
2021/12/30 05:33:00;;;;;;;17.60;3.50;;;;;;;9.56;98.02;100369.61;103181;1336;72931;-79
2021/12/30 05:38:01;;;;;;;18.20;3.50;;;;;;;9.58;98.05;100357.50;103626;1317;60638;-76
2021/12/30 05:40:29;;;;;;;12.10;3.20;;;;;;;9.60;98.08;100350.24;103667;1317;78371;-77
2021/12/30 05:42:55;;;;;;;16.30;4.00;;;;;;;9.63;98.23;100343.66;103979;1330;71478;-78
2021/12/30 05:45:22;;;;;;;16.20;3.80;;;;;;;9.66;98.14;100336.09;103943;1334;59650;-79
2021/12/30 05:47:51;;;;;;;16.00;4.00;;;;;;;9.71;97.74;100343.50;103755;1331;63361;-79
2021/12/30 05:50:24;;;;;;;12.30;4.10;;;;;;;9.76;97.75;100339.75;103802;1330;60855;-78
2021/12/30 05:52:51;;;;;;;22.80;4.40;;;;;;;9.78;97.81;100346.84;103801;1335;74054;-78
2021/12/30 06:00:33;;;;;;;18.30;4.80;;;;;;;9.74;97.53;100352.16;103858;1317;61835;-77
2021/12/30 06:03:00;;;;;;;12.70;3.40;;;;;;;9.73;97.87;100357.16;103840;1317;60324;-78
2021/12/30 06:05:27;;;;;;;22.00;4.10;;;;;;;9.72;98.05;100370.95;104242;1324;77119;-78
2021/12/30 06:07:53;;;;;;;16.00;5.00;;;;;;;9.73;98.20;100384.58;104167;1325;71578;-77
2021/12/30 06:10:20;;;;;;;17.30;4.80;;;;;;;9.74;98.19;100376.45;103684;1329;59099;-79
2021/12/30 06:12:49;;;;;;;12.30;5.00;;;;;;;9.77;98.23;100387.98;104281;1325;62371;-77
2021/12/30 06:15:16;;;;;;;11.40;3.90;;;;;;;9.80;97.93;100389.23;104284;1325;62159;-77
2021/12/30 06:17:43;;;;;;;20.90;4.00;;;;;;;9.82;98.18;100397.54;103266;1337;73921;-79
2021/12/30 06:20:13;;;;;;;15.50;4.40;;;;;;;9.83;98.03;100399.52;104177;1328;70728;-79
2021/12/30 06:22:42;;;;;;;21.60;4.80;;;;;;;9.85;98.16;100401.40;104121;1330;71731;-80
2021/12/30 06:25:09;;;;;;;19.50;5.70;;;;;;;9.87;98.06;100406.83;103525;1331;62348;-80
2021/12/30 06:27:36;;;;;;;22.90;4.00;;;;;;;9.89;98.02;100410.69;104205;1315;60654;-76
2021/12/30 06:30:05;;;;;;;17.50;5.00;;;;;;;9.84;97.99;100398.45;103876;1315;78386;-76
2021/12/30 06:32:34;;;;;;;16.70;5.20;;;;;;;9.91;97.98;100407.02;103911;1331;71643;-79
2021/12/30 06:35:01;;;;;;;19.80;5.10;;;;;;;9.92;98.21;100399.70;103821;1330;73130;-77
2021/12/30 06:37:29;;;;;;;15.20;4.70;;;;;;;9.93;98.37;100388.42;103334;1336;62293;-78
2021/12/30 06:39:55;;;;;;;16.50;6.00;;;;;;;9.95;98.51;100384.46;103933;1317;60849;-78
2021/12/30 06:47:39;;;;;;;21.50;7.00;;;;;;;10.03;98.72;100372.95;103837;1315;73875;-78
2021/12/30 06:50:11;;;;;;;17.50;5.50;;;;;;;10.08;98.84;100359.84;103434;1336;61999;-79
2021/12/30 06:52:38;;;;;;;18.80;6.50;;;;;;;10.14;98.68;100361.81;104039;1330;60093;-78
2021/12/30 06:55:05;;;;;;;16.80;7.10;;;;;;;10.20;98.70;100366.19;103805;1335;75007;-78
2021/12/30 06:57:34;;;;;;;19.10;6.30;;;;;;;10.25;98.07;100377.48;104036;1331;70954;-78
2021/12/30 07:00:01;;;;;;;16.30;5.60;;;;;;;10.28;98.23;100383.98;103594;1333;74180;-79
2021/12/30 07:02:27;;;;;;;17.70;6.30;;;;;;;10.34;98.31;100385.31;103732;1324;62799;-78
2021/12/30 07:04:54;;;;;;;20.20;6.20;;;;;;;10.37;98.05;100387.71;103423;1336;60321;-79
2021/12/30 07:07:21;;;;;;;21.40;6.50;;;;;;;10.40;98.14;100392.46;103303;1333;59977;-78
2021/12/30 07:09:47;;;;;;;15.10;5.00;;;;;;;10.43;98.21;100399.77;104008;1331;72497;-79
2021/12/30 07:12:14;;;;;;;17.60;5.40;;;;;;;10.45;98.10;100399.68;103934;1317;73966;-78
2021/12/30 07:14:41;;;;;;;22.30;6.20;;;;;;;10.48;98.30;100401.22;103926;1321;63294;-78
2021/12/30 07:17:07;;;;;;;17.20;5.60;;;;;;;10.49;98.33;100409.11;103534;1330;59063;-77
2021/12/30 07:19:34;;;;;;;17.90;6.20;;;;;;;10.50;98.27;100413.06;103612;1320;59371;-77
2021/12/30 07:22:00;;;;;;;22.40;6.80;;;;;;;10.50;98.10;100414.00;104142;1314;74231;-79
2021/12/30 07:31:59;;;;;;;20.50;7.20;;;;;;;10.54;99.08;100431.69;104121;1315;74270;-81
2021/12/30 07:34:30;;;;;;;17.40;6.90;;;;;;;10.55;99.20;100439.03;104418;1314;72985;-76
2021/12/30 07:36:57;;;;;;;15.20;6.50;;;;;;;10.53;99.32;100439.21;104156;1317;74614;-78
2021/12/30 07:39:23;;;;;;;16.70;8.00;;;;;;;10.52;99.48;100439.92;104282;1315;60169;-78
2021/12/30 07:41:51;;;;;;;19.80;8.40;;;;;;;10.51;99.69;100433.80;104125;1315;62896;-79
2021/12/30 07:44:17;;;;;;;21.20;7.50;;;;;;;10.51;100.00;100437.67;103762;1317;75077;-77
2021/12/30 07:46:44;;;;;;;12.50;5.90;;;;;;;10.53;100.00;100436.20;103586;1336;71522;-81
2021/12/30 07:49:11;;;;;;;19.60;8.20;;;;;;;10.55;100.00;100434.71;103901;1331;72323;-79
2021/12/30 07:51:37;;;;;;;15.30;6.70;;;;;;;10.57;100.00;100432.02;103527;1330;59109;-79
2021/12/30 07:54:04;;;;;;;21.70;8.30;;;;;;;10.59;100.00;100439.39;103832;1330;59952;-80
2021/12/30 07:56:30;;;;;;;21.80;8.00;;;;;;;10.61;100.00;100429.95;103946;1330;59289;-80
2021/12/30 07:58:58;;;;;;;23.10;8.90;;;;;;;10.64;100.00;100428.39;103917;1327;59395;-79
2021/12/30 08:01:25;;;;;;;21.60;10.00;;;;;;;10.69;100.00;100424.63;103586;1330;73733;-79
2021/12/30 08:03:52;;;;;;;20.60;8.60;;;;;;;10.72;100.00;100429.73;103097;1339;63026;-78
2021/12/30 08:09:01;;;;;;;27.30;9.20;;;;;;;10.81;100.00;100434.84;103763;1317;73805;-80
2021/12/30 08:14:01;;;;;;;19.60;9.50;;;;;;;10.90;100.00;100433.69;103716;1314;74252;-80
2021/12/30 08:16:28;;;;;;;16.90;9.30;;;;;;;10.92;100.00;100425.40;103833;1311;62402;-83
2021/12/30 08:18:57;;;;;;;21.80;10.40;;;;;;;10.96;100.00;100413.20;103667;1316;131137;-78
2021/12/30 08:21:24;;;;;;;17.30;8.90;;;;;;;10.99;100.00;100413.45;103432;1336;76496;-78
2021/12/30 08:23:51;;;;;;;21.90;8.30;;;;;;;11.01;100.00;100417.10;103505;1331;71452;-79
2021/12/30 08:26:18;;;;;;;17.80;7.00;;;;;;;11.04;100.00;100422.90;103769;1328;73010;-79
2021/12/30 08:28:48;;;;;;;16.70;8.80;;;;;;;11.06;100.00;100428.60;104025;1326;62965;-79
2021/12/30 08:31:15;;;;;;;14.60;6.40;;;;;;;11.08;100.00;100438.88;103913;1327;61914;-80
2021/12/30 08:33:42;;;;;;;18.40;8.50;;;;;;;11.11;100.00;100442.42;103811;1326;74985;-79
2021/12/30 08:36:09;;;;;;;16.00;8.10;;;;;;;11.14;100.00;100442.91;103532;1331;72580;-81
2021/12/30 08:38:36;;;;;;;22.90;8.70;;;;;;;11.18;100.00;100430.96;103872;1330;74527;-82
2021/12/30 08:41:05;;;;;;;15.90;7.20;;;;;;;11.21;100.00;100420.17;103922;1332;62259;-82
2021/12/30 08:43:31;;;;;;;16.50;7.80;;;;;;;11.25;100.00;100418.98;103584;1335;60223;-82
2021/12/30 08:45:58;;;;;;;14.60;6.80;;;;;;;11.28;100.00;100419.02;103302;1327;76281;-81
2021/12/30 08:48:25;;;;;;;14.10;6.50;;;;;;;11.32;100.00;100422.71;104066;1326;73445;-82
2021/12/30 08:50:51;;;;;;;14.60;6.80;;;;;;;11.37;100.00;100424.81;103793;1330;59321;-81
2021/12/30 08:53:18;;;;;;;13.10;5.80;;;;;;;11.40;100.00;100433.83;103426;1333;59213;-80
2021/12/30 08:55:45;;;;;;;13.80;6.50;;;;;;;11.43;100.00;100436.41;103969;1330;59560;-79
2021/12/30 08:58:12;;;;;;;11.90;5.50;;;;;;;11.48;100.00;100438.67;104066;1327;76060;-81
2021/12/30 09:00:41;;;;;;;11.30;5.60;;;;;;;11.52;100.00;100444.23;103260;1337;70505;-80
2021/12/30 09:03:08;;;;;;;11.30;5.40;;;;;;;11.56;100.00;100438.83;103814;1324;74143;-79
2021/12/30 09:05:36;;;;;;;12.60;6.00;;;;;;;11.58;100.00;100441.67;104112;1328;61579;-80
2021/12/30 09:08:03;;;;;;;6.60;3.90;;;;;;;11.62;100.00;100438.61;103454;1331;61252;-79
2021/12/30 09:10:34;;;;;;;12.60;5.60;;;;;;;11.64;100.00;100445.64;103304;1330;74966;-81
2021/12/30 09:13:01;;;;;;;12.60;5.40;;;;;;;11.66;100.00;100441.14;104133;1331;72567;-79
2021/12/30 09:15:29;;;;;;;10.20;4.50;;;;;;;11.69;100.00;100439.13;103526;1331;74256;-79
2021/12/30 09:17:57;;;;;;;6.90;3.90;;;;;;;11.73;100.00;100442.16;103956;1331;60966;-80
2021/12/30 09:20:25;;;;;;;7.20;3.80;;;;;;;11.78;100.00;100444.27;103719;1328;60396;-81
2021/12/30 09:22:52;;;;;;;7.00;3.70;;;;;;;11.80;100.00;100441.59;103927;1328;75418;-80
2021/12/30 09:25:22;;;;;;;4.40;3.20;;;;;;;11.83;100.00;100446.63;103891;1329;72532;-83
2021/12/30 09:27:50;;;;;;;6.00;3.20;;;;;;;11.85;100.00;100449.44;103257;1336;74058;-78
2021/12/30 09:30:17;;;;;;;9.10;3.30;;;;;;;11.88;100.00;100444.35;103604;1332;62340;-80
2021/12/30 09:32:46;;;;;;;6.80;3.70;;;;;;;11.91;100.00;100441.84;103481;1317;60617;-80
2021/12/30 09:35:13;;;;;;;7.20;3.80;;;;;;;11.93;100.00;100442.50;103499;1330;76454;-79
2021/12/30 09:37:44;;;;;;;6.40;3.30;;;;;;;11.95;100.00;100446.99;104061;1330;71485;-80
2021/12/30 09:40:14;;;;;;;8.70;3.50;;;;;;;11.95;100.00;100451.33;103314;1333;74300;-80
2021/12/30 09:42:44;;;;;;;5.90;3.70;;;;;;;11.95;100.00;100448.27;103780;1329;62248;-80
2021/12/30 09:45:13;;;;;;;7.80;3.40;;;;;;;11.92;100.00;100446.98;103926;1329;60106;-81
2021/12/30 09:47:46;;;;;;;5.40;3.00;;;;;;;11.91;100.00;100446.75;103914;1329;74532;-80
2021/12/30 09:50:14;;;;;;;4.60;2.70;;;;;;;11.90;100.00;100432.74;103651;1328;71615;-77
2021/12/30 09:52:40;;;;;;;6.00;3.50;;;;;;;11.90;100.00;100426.21;103933;1330;73821;-77
2021/12/30 09:55:07;;;;;;;7.00;3.80;;;;;;;11.91;100.00;100426.71;103280;1329;62457;-76
2021/12/30 09:57:35;;;;;;;5.00;3.40;;;;;;;11.92;100.00;100433.70;103967;1328;60758;-79
2021/12/30 10:00:09;;;;;;;4.40;2.60;;;;;;;11.93;100.00;100442.48;103992;1328;77502;-77
2021/12/30 10:02:36;;;;;;;10.20;3.80;;;;;;;11.93;100.00;100440.60;103906;1334;70712;-77
2021/12/30 10:05:05;;;;;;;9.20;4.80;;;;;;;11.93;100.00;100442.80;103668;1330;73690;-78
2021/12/30 10:07:32;;;;;;;10.90;5.20;;;;;;;11.93;100.00;100443.70;103837;1331;62048;-78
2021/12/30 10:10:03;;;;;;;8.20;3.70;;;;;;;11.92;100.00;100447.90;103358;1331;60393;-76
2021/12/30 10:12:44;;;;;;;8.00;4.10;;;;;;;11.91;100.00;100441.80;103758;1330;76025;-78
2021/12/30 10:15:11;;;;;;;5.80;3.40;;;;;;;11.91;100.00;100440.73;103172;1336;71707;-77
2021/12/30 10:17:38;;;;;;;6.20;4.10;;;;;;;11.92;100.00;100438.83;103171;1336;73163;-76
2021/12/30 10:20:18;;;;;;;6.60;4.10;;;;;;;11.93;100.00;100434.95;103961;1328;62274;-79
2021/12/30 10:22:46;;;;;;;5.90;3.50;;;;;;;11.95;100.00;100434.98;103766;1327;61695;-77
2021/12/30 10:25:24;;;;;;;6.30;3.30;;;;;;;11.96;100.00;100439.20;103381;1336;74777;-78
2021/12/30 10:27:51;;;;;;;4.00;2.30;;;;;;;11.98;100.00;100430.87;103886;1333;71150;-77
2021/12/30 10:30:34;;;;;;;6.20;2.00;;;;;;;12.00;100.00;100427.93;103909;1331;73284;-78
2021/12/30 10:33:19;;;;;;;2.60;1.90;;;;;;;12.01;100.00;100425.00;103212;1331;63210;-78
2021/12/30 10:35:46;;;;;;;5.40;2.30;;;;;;;12.04;100.00;100424.25;104028;1327;60689;-78
2021/12/30 10:38:14;;;;;;;3.10;1.90;;;;;;;12.06;100.00;100424.73;104008;1330;75955;-78
2021/12/30 10:40:51;;;;;;;3.60;1.50;;;;;;;12.08;100.00;100423.43;104051;1327;72292;-80
2021/12/30 10:43:44;;;;;;;3.00;1.60;;;;;;;12.10;100.00;100425.98;103902;1329;74068;-79
2021/12/30 10:46:13;;;;;;;4.70;1.20;;;;;;;12.13;100.00;100433.73;103665;1330;62341;-79
2021/12/30 10:48:52;;;;;;;1.80;1.10;;;;;;;12.14;100.00;100428.59;103654;1330;61303;-78
2021/12/30 10:51:23;;;;;;;3.30;1.60;;;;;;;12.16;100.00;100429.80;103083;1330;74987;-77
2021/12/30 10:53:52;;;;;;;3.40;1.70;;;;;;;12.17;100.00;100433.41;103513;1328;71463;-78
2021/12/30 10:56:23;;;;;;;5.60;2.40;;;;;;;12.18;100.00;100442.09;103335;1328;73093;-78
2021/12/30 10:58:50;;;;;;;6.50;2.80;;;;;;;12.18;100.00;100435.17;103300;1335;63478;-78
2021/12/30 11:01:19;;;;;;;11.50;5.80;;;;;;;12.17;100.00;100428.25;104004;1328;60810;-78
2021/12/30 11:03:58;;;;;;;6.10;2.70;;;;;;;12.16;100.00;100425.41;103431;1330;73792;-78
2021/12/30 11:06:25;;;;;;;12.00;4.80;;;;;;;12.13;100.00;100426.80;103432;1337;72509;-76
2021/12/30 11:09:12;;;;;;;4.90;2.60;;;;;;;12.13;100.00;100416.68;103549;1331;72047;-76
2021/12/30 11:11:48;;;;;;;5.10;2.00;;;;;;;12.14;100.00;100418.34;103283;1335;62222;-78
2021/12/30 11:14:18;;;;;;;2.40;1.40;;;;;;;12.15;100.00;100416.13;103713;1334;60636;-79
2021/12/30 11:16:58;;;;;;;3.00;1.30;;;;;;;12.16;100.00;100418.59;103688;1330;76251;-79
2021/12/30 11:19:28;;;;;;;4.00;2.00;;;;;;;12.17;100.00;100422.03;103806;1336;73074;-78
2021/12/30 11:21:59;;;;;;;5.20;1.90;;;;;;;12.18;100.00;100419.77;103401;1334;73990;-79
2021/12/30 11:24:29;;;;;;;1.80;1.10;;;;;;;12.19;100.00;100422.66;103963;1330;62503;-80
2021/12/30 11:26:57;;;;;;;2.00;0.60;;;;;;;12.22;100.00;100423.59;103786;1327;61597;-79
2021/12/30 11:29:24;;;;;;;1.00;0.50;;;;;;;12.25;100.00;100420.70;103491;1330;75986;-78
2021/12/30 11:31:52;;;;;;;0.90;0.50;;;;;;;12.27;100.00;100424.77;103909;1329;71213;-77
2021/12/30 11:34:21;;;;;;;2.50;1.00;;;;;;;12.30;100.00;100421.77;103229;1335;72298;-81
2021/12/30 11:36:48;;;;;;;1.10;0.60;;;;;;;12.33;100.00;100425.59;103921;1330;65152;-77
2021/12/30 11:39:18;;;;;;;1.80;0.80;;;;;;;12.38;100.00;100424.13;103648;1334;59118;-77
2021/12/30 11:41:58;;;;;;;1.20;0.80;;;;;;;12.43;100.00;100421.98;103924;1330;75015;-81
2021/12/30 11:44:35;;;;;;;2.70;0.90;;;;;;;12.49;100.00;100427.27;103556;1336;72685;-80
2021/12/30 11:47:09;;;;;;;1.30;0.90;;;;;;;12.57;100.00;100425.56;103722;1327;72993;-78
2021/12/30 11:49:54;;;;;;;1.70;1.00;;;;;;;12.64;100.00;100427.12;103228;1336;62334;-76